createdAt,value
2019-03-31T00:00:26.913Z,60.85
2019-03-31T00:02:53.037Z,61.67
2019-03-31T00:05:18.957Z,61.65
2019-03-31T00:07:44.878Z,61.98
2019-03-31T00:10:11.105Z,60.72
2019-03-31T00:12:37.024Z,61.50
2019-03-31T00:15:05.407Z,61.27
2019-03-31T00:17:31.634Z,61.57
2019-03-31T00:19:57.550Z,61.96
2019-03-31T00:22:23.677Z,63.07
2019-03-31T00:24:49.597Z,62.70
2019-03-31T00:27:15.518Z,63.58
2019-03-31T00:29:41.644Z,63.36
2019-03-31T00:32:07.564Z,62.82
2019-03-31T00:34:33.482Z,61.43
2019-03-31T00:36:59.408Z,62.03
2019-03-31T00:39:25.423Z,62.11
2019-03-31T00:41:51.349Z,62.52
2019-03-31T00:44:17.203Z,62.52
2019-03-31T00:46:43.252Z,64.14
2019-03-31T00:49:09.316Z,64.43
2019-03-31T00:51:35.241Z,63.03
2019-03-31T00:54:01.459Z,61.19
2019-03-31T00:56:27.380Z,62.69
2019-03-31T00:58:53.399Z,62.97
2019-03-31T01:01:20.037Z,62.44
2019-03-31T01:03:46.571Z,62.75
2019-03-31T01:06:15.256Z,63.07
2019-03-31T01:08:41.606Z,64.27
2019-03-31T01:11:11.401Z,63.55
2019-03-31T01:13:37.523Z,63.66
2019-03-31T01:16:03.752Z,62.44
2019-03-31T01:18:29.773Z,63.48
2019-03-31T01:20:56.205Z,62.73
2019-03-31T01:23:22.124Z,63.68
2019-03-31T01:25:48.150Z,64.78
2019-03-31T01:28:14.990Z,63.68
2019-03-31T01:30:41.011Z,64.50
2019-03-31T01:33:07.140Z,63.54
2019-03-31T01:35:33.571Z,62.44
2019-03-31T01:37:59.696Z,63.76
2019-03-31T01:40:25.725Z,66.72
2019-03-31T01:42:51.740Z,66.64
2019-03-31T01:45:17.874Z,66.85
2019-03-31T01:47:43.801Z,64.28
2019-03-31T01:50:13.171Z,64.97
2019-03-31T01:52:39.211Z,65.40
2019-03-31T01:55:05.721Z,65.49
2019-03-31T01:57:31.768Z,65.71
2019-03-31T01:59:57.796Z,65.59
2019-03-31T02:02:23.765Z,64.87
2019-03-31T02:04:49.744Z,64.51
2019-03-31T02:07:15.861Z,64.34
2019-03-31T02:09:41.881Z,63.55
2019-03-31T02:12:08.008Z,63.57
2019-03-31T02:14:33.924Z,65.32
2019-03-31T02:16:59.950Z,66.85
2019-03-31T02:19:25.869Z,65.95
2019-03-31T02:21:51.992Z,67.08
2019-03-31T02:24:17.914Z,67.35
2019-03-31T02:26:44.453Z,65.51
2019-03-31T02:29:10.575Z,65.66
2019-03-31T02:31:36.705Z,66.61
2019-03-31T02:34:03.212Z,65.48
2019-03-31T02:36:29.578Z,66.34
2019-03-31T02:38:55.697Z,65.80
2019-03-31T02:41:21.812Z,66.50
2019-03-31T02:43:48.322Z,66.08
2019-03-31T02:46:14.473Z,65.92
2019-03-31T02:48:40.504Z,65.53
2019-03-31T02:51:06.621Z,65.33
2019-03-31T02:53:32.855Z,64.70
2019-03-31T02:55:59.284Z,64.85
2019-03-31T02:58:26.535Z,64.54
2019-03-31T03:00:52.862Z,64.85
2019-03-31T03:03:19.097Z,64.73
2019-03-31T03:05:45.604Z,67.15
2019-03-31T03:08:12.566Z,67.89
2019-03-31T03:10:42.022Z,65.96
2019-03-31T03:13:09.118Z,64.99
2019-03-31T03:15:45.076Z,67.33
2019-03-31T03:18:11.200Z,69.14
2019-03-31T03:20:37.118Z,69.52
2019-03-31T03:23:03.047Z,69.04
2019-03-31T03:25:29.060Z,68.07
2019-03-31T03:27:54.984Z,65.79
2019-03-31T03:30:21.101Z,66.45
2019-03-31T03:33:12.211Z,69.12
2019-03-31T03:35:14.912Z,68.95
2019-03-31T03:37:41.021Z,69.09
2019-03-31T03:40:07.257Z,68.26
2019-03-31T03:42:33.167Z,68.59
2019-03-31T03:44:59.093Z,68.45
2019-03-31T03:47:25.054Z,67.65
2019-03-31T03:49:51.134Z,66.63
2019-03-31T03:52:17.255Z,66.19
2019-03-31T03:54:43.186Z,67.27
2019-03-31T03:57:09.198Z,67.66
2019-03-31T03:59:35.117Z,67.67
2019-03-31T04:02:01.144Z,66.62
2019-03-31T04:04:28.292Z,67.59
2019-03-31T04:06:54.214Z,68.03
2019-03-31T04:09:20.132Z,66.40
2019-03-31T04:11:46.358Z,66.11
2019-03-31T04:14:12.253Z,66.13
2019-03-31T04:16:38.198Z,67.35
2019-03-31T04:19:04.324Z,66.00
2019-03-31T04:21:30.242Z,68.02
2019-03-31T04:23:56.266Z,69.27
2019-03-31T04:26:22.498Z,67.64
2019-03-31T04:28:48.518Z,68.42
2019-03-31T04:31:14.745Z,67.73
2019-03-31T04:33:50.195Z,66.48
2019-03-31T04:36:08.631Z,66.83
2019-03-31T04:38:34.686Z,70.19
2019-03-31T04:41:00.782Z,70.70
2019-03-31T04:43:26.803Z,68.59
2019-03-31T04:45:52.727Z,69.57
2019-03-31T04:48:18.646Z,67.88
2019-03-31T04:50:44.664Z,68.16
2019-03-31T04:53:10.790Z,70.66
2019-03-31T04:55:36.711Z,70.04
2019-03-31T04:58:02.734Z,69.67
2019-03-31T05:00:28.656Z,70.99
2019-03-31T05:02:54.676Z,75.65
2019-03-31T05:05:20.598Z,75.30
2019-03-31T05:07:46.517Z,74.22
2019-03-31T05:10:12.639Z,72.87
2019-03-31T05:12:38.667Z,70.44
2019-03-31T05:15:05.402Z,68.11
2019-03-31T05:17:31.425Z,67.95
2019-03-31T05:19:57.447Z,68.49
2019-03-31T05:22:23.576Z,69.29
2019-03-31T05:24:49.495Z,68.47
2019-03-31T05:27:15.518Z,68.30
2019-03-31T05:29:41.436Z,68.49
2019-03-31T05:32:07.355Z,68.34
2019-03-31T05:34:33.279Z,69.76
2019-03-31T05:36:59.404Z,73.37
2019-03-31T05:39:25.321Z,71.70
2019-03-31T05:41:51.242Z,68.78
2019-03-31T05:44:17.171Z,67.93
2019-03-31T05:46:43.084Z,69.46
2019-03-31T05:49:09.208Z,70.73
2019-03-31T05:51:35.564Z,74.84
2019-03-31T05:54:01.562Z,72.12
2019-03-31T05:56:27.991Z,72.92
2019-03-31T05:58:53.913Z,72.14
2019-03-31T06:01:19.832Z,69.30
2019-03-31T06:03:45.753Z,69.61
2019-03-31T06:06:11.978Z,71.48
2019-03-31T06:08:38.003Z,70.14
2019-03-31T06:11:04.026Z,68.39
2019-03-31T06:13:29.945Z,68.48
2019-03-31T06:15:56.379Z,69.64
2019-03-31T06:18:22.307Z,69.34
2019-03-31T06:20:48.223Z,68.78
2019-03-31T06:23:17.559Z,67.66
2019-03-31T06:25:43.743Z,70.36
2019-03-31T06:28:32.090Z,69.48
2019-03-31T06:31:00.363Z,69.86
2019-03-31T06:33:33.044Z,68.63
2019-03-31T06:36:01.215Z,69.18
2019-03-31T06:38:31.904Z,67.62
2019-03-31T06:40:59.716Z,67.23
2019-03-31T06:43:26.023Z,66.82
2019-03-31T06:45:52.373Z,67.13
2019-03-31T06:48:18.399Z,67.69
2019-03-31T06:50:44.527Z,68.70
2019-03-31T06:53:10.652Z,69.49
2019-03-31T06:55:36.565Z,71.13
2019-03-31T06:58:02.798Z,72.26
2019-03-31T07:00:28.816Z,74.54
2019-03-31T07:02:54.736Z,76.12
2019-03-31T07:05:20.758Z,74.47
2019-03-31T07:07:46.785Z,74.19
2019-03-31T07:10:13.113Z,73.56
2019-03-31T07:12:39.236Z,73.40
2019-03-31T07:15:07.408Z,71.03
2019-03-31T07:17:33.403Z,70.18
2019-03-31T07:19:59.393Z,70.49
2019-03-31T07:22:25.479Z,69.42
2019-03-31T07:24:51.498Z,69.64
2019-03-31T07:27:17.419Z,69.31
2019-03-31T07:29:43.338Z,68.53
2019-03-31T07:32:09.262Z,68.06
2019-03-31T07:34:35.383Z,67.09
2019-03-31T07:37:01.305Z,67.17
2019-03-31T07:39:27.431Z,66.90
2019-03-31T07:41:54.013Z,65.91
2019-03-31T07:44:20.098Z,66.30
2019-03-31T07:46:46.009Z,66.45
2019-03-31T07:49:11.929Z,66.49
2019-03-31T07:51:37.849Z,66.20
2019-03-31T07:54:03.996Z,66.42
2019-03-31T07:56:29.998Z,66.25
2019-03-31T07:58:55.967Z,65.87
2019-03-31T08:01:21.938Z,65.55
2019-03-31T08:03:48.064Z,65.58
2019-03-31T08:06:14.087Z,66.01
2019-03-31T08:08:40.109Z,65.52
2019-03-31T08:11:06.020Z,63.89
2019-03-31T08:13:31.950Z,65.83
2019-03-31T08:15:57.970Z,65.81
2019-03-31T08:18:23.996Z,65.60
2019-03-31T08:20:50.017Z,65.60
2019-03-31T08:23:16.042Z,64.33
2019-03-31T08:25:42.158Z,64.92
2019-03-31T08:28:08.016Z,66.89
2019-03-31T08:30:34.106Z,67.16
2019-03-31T08:33:00.132Z,67.34
2019-03-31T08:35:26.155Z,66.56
2019-03-31T08:37:52.260Z,68.92
2019-03-31T08:40:18.406Z,67.81
2019-03-31T08:42:44.430Z,67.62
2019-03-31T08:45:12.702Z,68.15
2019-03-31T08:47:38.724Z,68.23
2019-03-31T08:50:06.080Z,67.76
2019-03-31T08:52:31.999Z,63.97
2019-03-31T08:54:58.328Z,63.82
2019-03-31T08:57:24.350Z,62.99
2019-03-31T08:59:50.268Z,66.77
2019-03-31T09:02:16.498Z,67.45
2019-03-31T09:04:42.424Z,66.23
2019-03-31T09:07:08.494Z,65.33
2019-03-31T09:09:34.363Z,64.62
2019-03-31T09:12:00.531Z,65.16
2019-03-31T09:14:26.411Z,65.10
2019-03-31T09:16:52.324Z,64.28
2019-03-31T09:19:18.247Z,64.85
2019-03-31T09:21:44.165Z,63.31
2019-03-31T09:24:10.187Z,63.33
2019-03-31T09:26:36.209Z,63.11
2019-03-31T09:29:02.234Z,63.83
2019-03-31T09:31:28.563Z,64.71
2019-03-31T09:33:54.512Z,65.26
2019-03-31T09:36:20.504Z,65.71
2019-03-31T09:38:48.563Z,65.66
2019-03-31T09:41:14.497Z,65.49
2019-03-31T09:43:40.415Z,65.47
2019-03-31T09:46:06.337Z,64.97
2019-03-31T09:48:32.465Z,64.45
2019-03-31T09:50:58.539Z,65.54
2019-03-31T09:53:24.632Z,64.73
2019-03-31T09:55:50.941Z,64.88
2019-03-31T09:58:16.968Z,64.73
2019-03-31T10:00:45.959Z,64.70
2019-03-31T10:03:12.289Z,64.57
2019-03-31T10:05:38.308Z,64.67
2019-03-31T10:08:04.462Z,65.55
2019-03-31T10:10:32.022Z,64.31
2019-03-31T10:12:58.318Z,65.19
2019-03-31T10:15:24.239Z,65.99
2019-03-31T10:17:50.330Z,65.53
2019-03-31T10:20:17.412Z,64.74
2019-03-31T10:22:43.744Z,66.05
2019-03-31T10:25:13.127Z,65.63
2019-03-31T10:27:37.631Z,66.17
2019-03-31T10:30:05.904Z,66.32
2019-03-31T10:32:31.929Z,65.95
2019-03-31T10:34:57.983Z,65.50
2019-03-31T10:37:23.971Z,65.54
2019-03-31T10:39:49.894Z,64.33
2019-03-31T10:42:15.815Z,63.35
2019-03-31T10:44:41.740Z,62.92
2019-03-31T10:47:07.965Z,64.28
2019-03-31T10:49:33.882Z,62.98
2019-03-31T10:51:59.819Z,64.39
2019-03-31T10:54:25.827Z,61.88
2019-03-31T10:56:51.850Z,62.30
2019-03-31T10:59:23.645Z,61.00
2019-03-31T11:02:01.445Z,60.78
2019-03-31T11:04:31.152Z,60.78
2019-03-31T11:07:03.644Z,61.05
2019-03-31T11:09:30.230Z,58.66
2019-03-31T11:11:56.141Z,57.65
2019-03-31T11:14:22.172Z,59.74
2019-03-31T11:16:48.096Z,59.00
2019-03-31T11:19:14.009Z,57.91
2019-03-31T11:21:40.470Z,57.17
2019-03-31T11:24:06.666Z,56.84
2019-03-31T11:26:32.686Z,56.26
2019-03-31T11:28:58.607Z,56.83
2019-03-31T11:31:24.731Z,57.92
2019-03-31T11:33:50.652Z,55.27
2019-03-31T11:36:16.734Z,57.08
2019-03-31T11:38:42.801Z,55.65
2019-03-31T11:41:09.846Z,54.56
2019-03-31T11:43:35.868Z,54.95
2019-03-31T11:46:02.019Z,55.48
2019-03-31T11:48:28.238Z,55.48
2019-03-31T11:50:54.346Z,52.58
2019-03-31T11:53:20.371Z,53.49
2019-03-31T11:55:46.392Z,52.83
2019-03-31T11:58:12.312Z,52.83
2019-03-31T12:00:38.241Z,53.55
2019-03-31T12:03:04.161Z,53.62
2019-03-31T12:05:30.073Z,52.52
2019-03-31T12:07:55.993Z,52.60
2019-03-31T12:10:21.913Z,52.75
2019-03-31T12:12:48.043Z,53.07
2019-03-31T12:15:15.802Z,55.17
2019-03-31T12:17:41.720Z,54.91
2019-03-31T12:20:08.460Z,56.26
2019-03-31T12:22:34.687Z,57.31
2019-03-31T12:25:00.812Z,55.26
2019-03-31T12:27:26.937Z,54.19
2019-03-31T12:29:52.860Z,55.20
2019-03-31T12:32:19.476Z,55.78
2019-03-31T12:34:45.519Z,55.39
2019-03-31T12:37:11.851Z,54.43
2019-03-31T12:39:37.893Z,55.39
2019-03-31T12:42:03.893Z,56.21
2019-03-31T12:44:29.812Z,55.64
2019-03-31T12:46:56.458Z,55.34
2019-03-31T12:49:22.778Z,56.78
2019-03-31T12:51:48.802Z,57.54
2019-03-31T12:54:15.236Z,59.38
2019-03-31T12:56:41.315Z,61.13
2019-03-31T12:59:07.589Z,60.77
2019-03-31T13:01:33.628Z,60.10
2019-03-31T13:03:59.532Z,61.17
2019-03-31T13:06:25.759Z,60.74
2019-03-31T13:08:51.779Z,60.83
2019-03-31T13:11:17.700Z,58.14
2019-03-31T13:13:43.622Z,57.63
2019-03-31T13:16:09.848Z,58.76
2019-03-31T13:18:35.870Z,56.12
2019-03-31T13:21:02.215Z,55.17
2019-03-31T13:23:28.443Z,54.51
2019-03-31T13:25:54.557Z,55.11
2019-03-31T13:28:20.579Z,54.35
2019-03-31T13:30:46.601Z,56.28
2019-03-31T13:33:12.523Z,55.68
2019-03-31T13:35:38.441Z,57.30
2019-03-31T13:38:10.823Z,58.58
2019-03-31T13:40:32.530Z,57.41
2019-03-31T13:43:12.842Z,58.17
2019-03-31T13:46:07.037Z,57.97
2019-03-31T13:48:37.602Z,58.51
2019-03-31T13:51:03.626Z,58.41
2019-03-31T13:53:29.543Z,57.70
2019-03-31T13:55:55.589Z,56.12
2019-03-31T13:58:23.390Z,57.35
2019-03-31T14:00:49.596Z,57.33
2019-03-31T14:03:15.578Z,58.19
2019-03-31T14:05:41.602Z,57.45
2019-03-31T14:08:07.626Z,57.36
2019-03-31T14:10:33.854Z,57.74
2019-03-31T14:12:59.979Z,59.08
2019-03-31T14:15:25.901Z,61.11
2019-03-31T14:17:51.924Z,61.08
2019-03-31T14:20:18.049Z,62.06
2019-03-31T14:22:44.073Z,58.71
2019-03-31T14:25:10.301Z,60.63
2019-03-31T14:27:36.317Z,60.41
2019-03-31T14:30:04.702Z,59.82
2019-03-31T14:32:30.640Z,60.64
2019-03-31T14:34:56.537Z,61.86
2019-03-31T14:37:22.764Z,61.73
2019-03-31T14:39:48.889Z,63.87
2019-03-31T14:42:14.810Z,64.31
2019-03-31T14:44:41.137Z,63.22
2019-03-31T14:47:07.062Z,64.65
2019-03-31T14:49:33.186Z,64.54
2019-03-31T14:52:01.335Z,64.47
2019-03-31T14:54:27.074Z,63.05
2019-03-31T14:56:52.964Z,62.26
2019-03-31T14:59:19.020Z,61.95
2019-03-31T15:01:57.794Z,60.97
2019-03-31T15:04:27.958Z,62.28
2019-03-31T15:09:27.812Z,63.86
2019-03-31T15:11:53.687Z,63.02
2019-03-31T15:14:19.499Z,63.51
2019-03-31T15:16:48.302Z,62.77
2019-03-31T15:19:13.308Z,63.10
2019-03-31T15:21:47.218Z,63.73
2019-03-31T15:24:19.366Z,63.51
2019-03-31T15:26:48.563Z,64.04
2019-03-31T15:29:14.580Z,63.62
2019-03-31T15:31:40.426Z,64.68
2019-03-31T15:34:11.469Z,64.68
2019-03-31T15:36:37.297Z,62.80
2019-03-31T15:39:09.005Z,63.41
2019-03-31T15:41:34.088Z,63.71
2019-03-31T15:43:59.916Z,63.57
2019-03-31T15:46:25.832Z,64.66
2019-03-31T15:48:58.083Z,65.88
2019-03-31T15:51:23.963Z,64.62
2019-03-31T15:53:49.824Z,64.80
2019-03-31T15:56:15.732Z,64.91
2019-03-31T15:58:41.621Z,66.00
2019-03-31T16:01:09.345Z,65.12
2019-03-31T16:03:44.288Z,65.91
2019-03-31T16:06:11.688Z,65.43
2019-03-31T16:08:37.588Z,66.02
2019-03-31T16:11:04.902Z,64.99
2019-03-31T16:13:32.214Z,65.94
2019-03-31T16:16:00.321Z,65.11
2019-03-31T16:18:26.137Z,65.53
2019-03-31T16:20:52.047Z,65.95
2019-03-31T16:23:23.940Z,65.33
2019-03-31T16:25:50.656Z,64.49
2019-03-31T16:28:22.546Z,65.43
2019-03-31T16:30:48.476Z,64.98
2019-03-31T16:33:14.349Z,64.66
2019-03-31T16:35:40.561Z,65.26
2019-03-31T16:38:06.564Z,65.09
2019-03-31T16:40:32.385Z,65.30
2019-03-31T16:43:01.291Z,65.91
2019-03-31T16:45:30.294Z,65.74
2019-03-31T16:48:05.591Z,65.42
2019-03-31T16:50:31.406Z,65.72
2019-03-31T16:52:59.376Z,65.44
2019-03-31T16:55:25.193Z,66.02
2019-03-31T16:57:51.045Z,65.71
2019-03-31T17:00:17.061Z,65.46
2019-03-31T17:02:42.920Z,65.24
2019-03-31T17:05:21.100Z,66.09
2019-03-31T17:07:37.203Z,67.12
2019-03-31T17:10:05.623Z,67.68
2019-03-31T17:12:31.523Z,67.98
2019-03-31T17:14:57.338Z,67.01
2019-03-31T17:17:23.509Z,67.53
2019-03-31T17:19:49.398Z,67.84
2019-03-31T17:22:15.474Z,67.89
2019-03-31T17:24:41.643Z,68.75
2019-03-31T17:27:18.820Z,68.75
2019-03-31T17:29:44.654Z,69.65
2019-03-31T17:32:10.856Z,69.22
2019-03-31T17:34:36.717Z,69.52
2019-03-31T17:37:02.738Z,69.49
2019-03-31T17:39:28.607Z,69.91
2019-03-31T17:41:54.439Z,70.19
2019-03-31T17:44:21.504Z,69.54
2019-03-31T17:46:47.506Z,69.38
2019-03-31T17:49:13.438Z,69.68
2019-03-31T17:51:39.251Z,69.69
2019-03-31T17:54:06.585Z,69.41
2019-03-31T17:56:32.717Z,70.18
2019-03-31T17:59:00.728Z,70.20
2019-03-31T18:01:26.693Z,70.34
2019-03-31T18:03:55.698Z,70.36
2019-03-31T18:06:21.814Z,70.39
2019-03-31T18:08:47.939Z,70.71
2019-03-31T18:11:14.072Z,70.11
2019-03-31T18:13:39.948Z,69.82
2019-03-31T18:16:05.840Z,70.89
2019-03-31T18:18:40.115Z,70.40
2019-03-31T18:21:05.983Z,71.52
2019-03-31T18:23:31.847Z,72.01
2019-03-31T18:25:57.709Z,71.71
2019-03-31T18:28:29.380Z,71.25
2019-03-31T18:30:55.248Z,70.37
2019-03-31T18:33:21.092Z,69.05
2019-03-31T18:35:48.120Z,68.11
2019-03-31T18:38:13.965Z,68.98
2019-03-31T18:40:39.780Z,70.32
2019-03-31T18:43:05.836Z,71.54
2019-03-31T18:45:31.726Z,72.86
2019-03-31T18:48:01.136Z,73.67
2019-03-31T18:50:32.346Z,73.25
2019-03-31T18:53:05.544Z,73.01
2019-03-31T18:55:31.405Z,73.21
2019-03-31T18:57:57.276Z,72.60
2019-03-31T19:00:34.565Z,72.34
2019-03-31T19:03:02.907Z,72.07
2019-03-31T19:05:29.025Z,71.36
2019-03-31T19:07:55.218Z,70.95
2019-03-31T19:10:24.899Z,72.32
2019-03-31T19:12:48.944Z,72.65
2019-03-31T19:15:15.016Z,72.61
2019-03-31T19:17:40.984Z,72.31
2019-03-31T19:20:07.115Z,72.15
2019-03-31T19:22:32.929Z,72.24
2019-03-31T19:24:58.794Z,72.09
2019-03-31T19:27:27.763Z,72.06
2019-03-31T19:29:53.764Z,72.00
2019-03-31T19:32:19.638Z,69.95
2019-03-31T19:34:45.452Z,70.78
2019-03-31T19:37:11.407Z,71.20
2019-03-31T19:39:37.257Z,70.76
2019-03-31T19:42:03.214Z,70.60
2019-03-31T19:44:30.116Z,70.23
2019-03-31T19:46:58.039Z,68.74
2019-03-31T19:49:24.941Z,69.48
2019-03-31T19:51:50.791Z,69.99
2019-03-31T19:54:16.608Z,68.44
2019-03-31T19:56:42.632Z,68.35
2019-03-31T19:59:08.479Z,68.76
2019-03-31T20:01:34.348Z,69.90
2019-03-31T20:04:02.260Z,69.89
2019-03-31T20:06:28.095Z,69.14
2019-03-31T20:08:59.839Z,71.07
2019-03-31T20:11:25.799Z,71.45
2019-03-31T20:13:51.662Z,72.02
2019-03-31T20:16:17.544Z,72.66
2019-03-31T20:18:44.033Z,72.68
2019-03-31T20:21:09.838Z,72.92
2019-03-31T20:23:35.647Z,73.42
2019-03-31T20:26:01.648Z,73.79
2019-03-31T20:28:27.735Z,74.16
2019-03-31T20:30:57.244Z,74.10
2019-03-31T20:33:34.429Z,74.08
2019-03-31T20:36:01.318Z,73.91
2019-03-31T20:38:27.214Z,74.10
2019-03-31T20:40:53.083Z,75.07
2019-03-31T20:43:18.926Z,74.52
2019-03-31T20:45:44.909Z,75.38
2019-03-31T20:48:10.908Z,75.90
2019-03-31T20:50:36.788Z,76.09
2019-03-31T20:53:02.769Z,76.71
2019-03-31T20:55:28.728Z,76.61
2019-03-31T20:57:54.585Z,75.96
2019-03-31T21:00:20.452Z,75.57
2019-03-31T21:02:46.269Z,75.90
2019-03-31T21:05:12.337Z,76.04
2019-03-31T21:07:38.152Z,75.88
2019-03-31T21:10:04.839Z,76.14
2019-03-31T21:12:30.671Z,76.35
2019-03-31T21:14:57.599Z,76.47
2019-03-31T21:17:23.407Z,75.93
2019-03-31T21:19:49.257Z,76.13
2019-03-31T21:22:15.068Z,75.85
2019-03-31T21:24:40.923Z,75.62
2019-03-31T21:27:06.754Z,75.17
2019-03-31T21:29:32.615Z,76.05
2019-03-31T21:31:58.507Z,76.03
2019-03-31T21:34:24.360Z,76.71
2019-03-31T21:36:50.279Z,77.18
2019-03-31T21:39:16.122Z,77.48
2019-03-31T21:41:48.250Z,77.19
2019-03-31T21:44:14.115Z,77.07
2019-03-31T21:46:40.080Z,76.12
2019-03-31T21:49:06.149Z,76.26
2019-03-31T21:51:31.971Z,76.14
2019-03-31T21:53:59.032Z,76.95
2019-03-31T21:56:24.902Z,77.71
2019-03-31T21:58:50.887Z,77.83
2019-03-31T22:01:16.917Z,77.59
2019-03-31T22:03:45.827Z,77.68
2019-03-31T22:06:11.747Z,77.10
2019-03-31T22:08:37.689Z,77.75
2019-03-31T22:11:03.593Z,78.02
2019-03-31T22:13:29.459Z,78.07
2019-03-31T22:15:56.002Z,78.78
2019-03-31T22:18:21.868Z,78.47
2019-03-31T22:20:47.741Z,78.34
2019-03-31T22:23:13.657Z,78.27
2019-03-31T22:25:39.529Z,78.91
2019-03-31T22:28:05.342Z,78.83
2019-03-31T22:30:33.325Z,78.97
2019-03-31T22:32:59.136Z,78.75
2019-03-31T22:35:26.027Z,79.01
2019-03-31T22:37:53.853Z,79.09
2019-03-31T22:40:19.699Z,79.10
2019-03-31T22:42:45.523Z,78.74
2019-03-31T22:45:14.534Z,78.79
2019-03-31T22:47:40.386Z,78.77
2019-03-31T22:50:06.730Z,78.36
2019-03-31T22:52:32.557Z,78.57
2019-03-31T22:55:01.608Z,78.81
2019-03-31T22:57:30.646Z,78.35
2019-03-31T22:59:56.609Z,77.87
2019-03-31T23:02:22.421Z,76.98
2019-03-31T23:04:48.289Z,76.24
2019-03-31T23:07:14.099Z,75.44
2019-03-31T23:09:39.966Z,74.27
2019-03-31T23:12:05.863Z,73.70
2019-03-31T23:14:32.712Z,73.88
2019-03-31T23:16:58.567Z,73.76
2019-03-31T23:19:24.424Z,74.29
2019-03-31T23:21:50.661Z,73.54
2019-03-31T23:24:16.509Z,73.62
2019-03-31T23:26:42.424Z,72.99
2019-03-31T23:29:08.496Z,72.11
2019-03-31T23:31:45.318Z,72.46
2019-03-31T23:34:11.195Z,72.57
2019-03-31T23:36:37.060Z,72.65
2019-03-31T23:39:05.338Z,71.87
2019-03-31T23:41:31.140Z,71.93
2019-03-31T23:43:57.055Z,72.08
2019-03-31T23:46:32.938Z,71.07
2019-03-31T23:48:58.787Z,70.95
2019-03-31T23:51:27.685Z,70.06
2019-03-31T23:53:53.551Z,70.71
2019-03-31T23:56:19.410Z,69.47
2019-03-31T23:58:45.236Z,69.15
